createdAt,value
2023-03-29T00:02:59.354Z,52.15
2023-03-29T00:08:04.376Z,51.33
2023-03-29T00:13:07.368Z,52.38
2023-03-29T00:18:10.525Z,54.08
2023-03-29T00:23:14.591Z,54.59
2023-03-29T00:28:19.138Z,52.57
2023-03-29T00:33:22.796Z,52.03
2023-03-29T00:38:27.510Z,51.69
2023-03-29T00:43:30.448Z,52.07
2023-03-29T00:48:33.367Z,52.21
2023-03-29T00:53:41.085Z,52.72
2023-03-29T00:58:51.855Z,52.14
2023-03-29T01:04:03.105Z,52.95
2023-03-29T01:09:10.803Z,52.55
2023-03-29T01:14:19.516Z,52.20
2023-03-29T01:19:28.365Z,51.75
2023-03-29T01:24:45.191Z,52.15
2023-03-29T01:29:54.004Z,50.91
2023-03-29T01:35:01.428Z,51.82
2023-03-29T01:40:06.328Z,51.90
2023-03-29T01:45:22.729Z,52.40
2023-03-29T01:50:37.286Z,52.37
2023-03-29T01:55:44.759Z,52.73
2023-03-29T02:00:53.909Z,51.43
2023-03-29T02:05:58.892Z,51.38
2023-03-29T02:11:04.579Z,50.47
2023-03-29T02:16:13.149Z,50.69
2023-03-29T02:21:21.894Z,50.65
2023-03-29T02:26:24.773Z,50.44
2023-03-29T02:31:33.239Z,49.93
2023-03-29T02:36:40.790Z,49.76
2023-03-29T02:41:47.084Z,49.82
2023-03-29T02:46:56.654Z,49.65
2023-03-29T02:52:07.674Z,49.43
2023-03-29T02:57:11.383Z,50.07
2023-03-29T03:02:17.471Z,49.91
2023-03-29T03:07:20.976Z,50.20
2023-03-29T03:12:24.052Z,51.15
2023-03-29T03:17:28.261Z,51.57
2023-03-29T03:22:32.262Z,51.08
2023-03-29T03:27:34.987Z,51.30
2023-03-29T03:32:39.285Z,51.75
2023-03-29T03:38:08.553Z,51.71
2023-03-29T03:43:11.690Z,51.89
2023-03-29T03:48:16.938Z,50.19
2023-03-29T03:53:31.242Z,51.04
2023-03-29T03:58:49.039Z,50.86
2023-03-29T04:03:55.815Z,49.74
2023-03-29T04:09:00.133Z,50.00
2023-03-29T04:14:15.876Z,49.57
2023-03-29T04:19:35.285Z,51.04
2023-03-29T04:24:38.161Z,50.69
2023-03-29T04:30:00.540Z,51.49
2023-03-29T04:35:36.649Z,51.00
2023-03-29T04:40:39.814Z,51.33
2023-03-29T04:45:49.334Z,51.08
2023-03-29T04:51:11.641Z,52.57
2023-03-29T04:56:16.372Z,51.67
2023-03-29T05:01:45.756Z,52.04
2023-03-29T05:06:50.184Z,51.82
2023-03-29T05:11:52.982Z,52.21
2023-03-29T05:16:57.338Z,54.89
2023-03-29T05:22:01.637Z,52.78
2023-03-29T05:27:04.910Z,54.64
2023-03-29T05:32:10.586Z,53.38
2023-03-29T05:37:15.507Z,52.83
2023-03-29T05:42:26.127Z,52.41
2023-03-29T05:47:32.697Z,52.87
2023-03-29T05:52:37.932Z,52.29
2023-03-29T05:57:41.419Z,52.19
2023-03-29T06:02:44.315Z,52.80
2023-03-29T06:07:49.791Z,51.98
2023-03-29T06:13:11.905Z,51.83
2023-03-29T06:18:15.258Z,51.88
2023-03-29T06:23:20.486Z,51.22
2023-03-29T06:28:24.133Z,50.97
2023-03-29T06:33:27.627Z,50.36
2023-03-29T06:38:41.611Z,51.36
2023-03-29T06:44:17.342Z,50.96
2023-03-29T06:49:31.668Z,51.15
2023-03-29T06:54:52.578Z,51.20
2023-03-29T06:59:55.612Z,49.94
2023-03-29T07:05:02.387Z,49.70
2023-03-29T07:10:12.827Z,50.85
2023-03-29T07:15:51.444Z,49.38
2023-03-29T07:21:13.774Z,49.11
2023-03-29T07:26:28.806Z,48.28
2023-03-29T07:31:36.281Z,46.58
2023-03-29T07:36:57.671Z,48.22
2023-03-29T07:42:01.923Z,50.00
2023-03-29T07:47:05.474Z,50.50
2023-03-29T07:52:09.268Z,49.06
2023-03-29T07:57:13.597Z,50.09
2023-03-29T08:02:20.961Z,48.54
2023-03-29T08:07:27.363Z,47.96
2023-03-29T08:12:34.038Z,47.72
2023-03-29T08:17:38.050Z,49.73
2023-03-29T08:22:41.999Z,48.94
2023-03-29T08:28:06.477Z,48.08
2023-03-29T08:33:19.740Z,50.34
2023-03-29T08:38:30.050Z,50.85
2023-03-29T08:43:52.684Z,50.51
2023-03-29T08:49:05.181Z,50.86
2023-03-29T08:54:14.429Z,49.79
2023-03-29T08:59:39.654Z,48.02
2023-03-29T09:04:45.912Z,49.16
2023-03-29T09:10:13.634Z,48.75
2023-03-29T09:15:25.261Z,47.77
2023-03-29T09:20:46.509Z,49.10
2023-03-29T09:26:42.051Z,48.60
2023-03-29T09:32:45.242Z,48.11
2023-03-29T09:39:17.068Z,49.58
2023-03-29T09:52:04.880Z,46.38
2023-03-29T09:57:54.780Z,45.63
2023-03-29T10:03:39.926Z,45.11
2023-03-29T10:09:36.072Z,43.51
2023-03-29T10:15:29.007Z,46.97
2023-03-29T10:20:48.093Z,47.56
2023-03-29T10:25:53.165Z,45.53
2023-03-29T10:30:58.266Z,45.37
2023-03-29T10:36:03.758Z,43.65
2023-03-29T10:41:12.074Z,42.90
2023-03-29T10:46:20.736Z,44.37
2023-03-29T10:51:25.169Z,46.36
2023-03-29T10:56:40.078Z,48.35
2023-03-29T11:01:51.164Z,46.11
2023-03-29T11:07:10.891Z,46.27
2023-03-29T11:12:26.434Z,47.39
2023-03-29T11:17:44.638Z,48.63
2023-03-29T11:22:54.279Z,51.33
2023-03-29T11:28:07.578Z,50.51
2023-03-29T11:33:22.001Z,47.54
2023-03-29T11:38:32.356Z,46.73
2023-03-29T11:43:39.622Z,46.72
2023-03-29T11:48:50.310Z,47.47
2023-03-29T11:54:00.395Z,49.76
2023-03-29T11:59:11.461Z,47.55
2023-03-29T12:04:22.768Z,49.66
2023-03-29T12:09:32.520Z,51.26
2023-03-29T12:14:47.862Z,49.79
2023-03-29T12:20:01.586Z,48.37
2023-03-29T12:25:08.744Z,47.50
2023-03-29T12:30:36.982Z,49.04
2023-03-29T12:35:48.608Z,49.64
2023-03-29T12:41:16.775Z,47.45
2023-03-29T12:46:41.739Z,45.81
2023-03-29T12:52:49.404Z,46.03
2023-03-29T13:05:36.147Z,47.62
2023-03-29T13:10:42.439Z,46.16
2023-03-29T13:15:46.538Z,45.88
2023-03-29T13:20:59.852Z,43.84
2023-03-29T13:26:17.434Z,44.24
2023-03-29T13:31:30.871Z,46.86
2023-03-29T13:36:52.327Z,46.44
2023-03-29T13:42:07.495Z,45.51
2023-03-29T13:47:28.690Z,45.68
2023-03-29T13:52:39.215Z,44.32
2023-03-29T13:57:46.738Z,45.45
2023-03-29T14:02:52.866Z,46.30
2023-03-29T14:07:58.021Z,45.79
2023-03-29T14:13:03.934Z,47.05
2023-03-29T14:18:06.900Z,45.96
2023-03-29T14:23:15.616Z,48.33
2023-03-29T14:28:23.916Z,49.26
2023-03-29T14:40:21.058Z,51.76
2023-03-29T14:45:24.447Z,53.06
2023-03-29T14:50:31.008Z,52.54
2023-03-29T14:55:39.096Z,52.58
2023-03-29T15:00:43.454Z,50.57
2023-03-29T15:05:51.229Z,50.24
2023-03-29T15:10:55.977Z,49.83
2023-03-29T15:16:03.950Z,49.79
2023-03-29T15:21:09.124Z,49.28
2023-03-29T15:26:22.230Z,50.48
2023-03-29T16:16:29.529Z,53.09
2023-03-29T16:41:50.233Z,53.74
2023-03-29T16:46:57.423Z,52.60
2023-03-29T16:52:00.928Z,54.55
2023-03-29T16:57:07.107Z,54.36
2023-03-29T17:02:10.780Z,54.29
2023-03-29T17:07:13.652Z,55.16
2023-03-29T17:12:19.189Z,55.10
2023-03-29T17:17:22.029Z,54.71
2023-03-29T17:22:25.457Z,53.98
2023-03-29T17:27:29.692Z,54.97
2023-03-29T17:32:32.519Z,55.23
2023-03-29T17:37:37.880Z,55.41
2023-03-29T17:42:42.675Z,54.98
2023-03-29T17:47:45.535Z,55.51
2023-03-29T17:52:48.765Z,55.88
2023-03-29T17:57:53.000Z,55.79
2023-03-29T18:02:56.027Z,56.57
2023-03-29T18:07:58.853Z,57.42
2023-03-29T18:13:03.044Z,57.68
2023-03-29T18:18:06.279Z,58.63
2023-03-29T18:23:09.275Z,58.11
2023-03-29T18:28:18.693Z,57.34
2023-03-29T18:33:30.206Z,58.58
2023-03-29T18:38:35.086Z,59.54
2023-03-29T18:43:41.238Z,59.41
2023-03-29T18:48:44.209Z,58.70
2023-03-29T18:53:47.099Z,59.74
2023-03-29T18:58:51.410Z,60.50
2023-03-29T19:03:54.346Z,61.54
2023-03-29T19:08:58.669Z,60.23
2023-03-29T19:14:02.832Z,60.76
2023-03-29T19:19:06.958Z,60.33
2023-03-29T19:24:09.951Z,59.75
2023-03-29T19:29:14.848Z,61.64
2023-03-29T19:34:19.655Z,61.79
2023-03-29T19:39:23.033Z,62.04
2023-03-29T19:44:28.125Z,61.63
2023-03-29T19:49:31.022Z,61.64
2023-03-29T19:54:33.967Z,63.37
2023-03-29T19:59:40.678Z,60.79
2023-03-29T20:04:43.660Z,61.55
2023-03-29T20:09:46.490Z,60.99
2023-03-29T20:14:50.682Z,60.24
2023-03-29T20:19:54.136Z,60.52
2023-03-29T20:24:57.095Z,60.78
2023-03-29T20:30:01.245Z,60.99
2023-03-29T20:35:04.141Z,60.95
2023-03-29T20:40:08.386Z,60.95
2023-03-29T20:45:18.507Z,62.43
2023-03-29T20:50:26.157Z,62.21
2023-03-29T20:55:30.384Z,63.34
2023-03-29T21:00:35.656Z,62.69
2023-03-29T21:05:38.851Z,60.96
2023-03-29T21:10:42.447Z,58.45
2023-03-29T21:15:47.013Z,60.09
2023-03-29T21:20:49.764Z,60.19
2023-03-29T21:25:52.549Z,62.37
2023-03-29T21:30:57.268Z,62.82
2023-03-29T21:36:00.619Z,63.93
2023-03-29T21:41:03.723Z,64.83
2023-03-29T21:46:08.605Z,65.99
2023-03-29T21:51:11.584Z,65.66
2023-03-29T21:56:14.355Z,64.97
2023-03-29T22:01:18.542Z,63.54
2023-03-29T22:06:21.763Z,65.44
2023-03-29T22:11:25.606Z,65.69
2023-03-29T22:16:31.260Z,65.01
2023-03-29T22:21:37.251Z,65.20
2023-03-29T22:26:40.953Z,65.07
2023-03-29T22:31:45.139Z,63.83
2023-03-29T22:36:48.097Z,64.68
2023-03-29T22:41:50.885Z,63.89
2023-03-29T22:46:55.676Z,64.93
2023-03-29T22:51:59.623Z,66.13
2023-03-29T22:57:02.440Z,66.42
2023-03-29T23:02:06.725Z,64.48
2023-03-29T23:07:09.611Z,65.05
2023-03-29T23:12:12.338Z,67.09
2023-03-29T23:17:19.290Z,68.06
2023-03-29T23:22:22.591Z,69.33
2023-03-29T23:27:26.119Z,67.82
2023-03-29T23:32:30.279Z,69.05
2023-03-29T23:37:33.082Z,67.72
2023-03-29T23:42:36.961Z,67.78
2023-03-29T23:47:42.426Z,68.11
2023-03-29T23:52:46.562Z,67.14
2023-03-29T23:57:49.337Z,67.29
